Overview Statistics Trail Chart Weather Telemetry Raw packets
 

This is the latest recevied telemetry packets stored in our database for station/object DK9MS-12. If no packets are shown the sender has not sent any telemetry packets the latest 10 day(s).

Telemetry packets is used to share measurements like repeteater parameters, battery voltage, radiation readings (or any other measurements).

<< 1 2 3 4 >>
Time Press* Temp.in* Hum* QNH* Temp.out*
1788605312 985.5 hPa 21.7 C deg 53.8 % 1022.5 hPa 0 C deg
1788603497 985.6 hPa 21.6 C deg 53.9 % 1022.6 hPa 0 C deg
1788601682 985.6 hPa 21.7 C deg 53.9 % 1022.6 hPa 0 C deg
1788599866 985.5 hPa 21.7 C deg 53.9 % 1022.5 hPa 0 C deg
1788598076 985.2 hPa 21.7 C deg 53.9 % 1022.1 hPa 0 C deg
1788596236 984.9 hPa 21.7 C deg 53.9 % 1021.8 hPa 0 C deg
1788594421 984.6 hPa 21.7 C deg 53.9 % 1021.5 hPa 0 C deg
1788592606 984.5 hPa 21.7 C deg 54 % 1021.5 hPa 0 C deg
1788590791 984.3 hPa 21.7 C deg 54 % 1021.3 hPa 0 C deg
1788587161 983.8 hPa 21.6 C deg 54.1 % 1020.8 hPa 0 C deg
1788585346 983.3 hPa 21.7 C deg 54.1 % 1020.2 hPa 0 C deg
1788583530 982.9 hPa 21.6 C deg 54.1 % 1019.8 hPa 0 C deg
1788581715 982.8 hPa 21.7 C deg 54.1 % 1019.7 hPa 0 C deg
1788579907 982.7 hPa 21.8 C deg 53.8 % 1019.5 hPa 0 C deg
1788578085 982.3 hPa 21.6 C deg 54.3 % 1019.1 hPa 0 C deg
1788576270 982 hPa 21.6 C deg 54.3 % 1018.9 hPa 0 C deg
1788574455 981.8 hPa 21.6 C deg 54.4 % 1018.6 hPa 0 C deg
1788572640 981.8 hPa 21.6 C deg 54.4 % 1018.7 hPa 0 C deg
1788570825 981.6 hPa 21.6 C deg 54.5 % 1018.4 hPa 0 C deg
1788569009 981.6 hPa 21.6 C deg 54.5 % 1018.4 hPa 0 C deg
1788567194 981.2 hPa 21.6 C deg 54.6 % 1018.1 hPa 0 C deg
1788565379 980.8 hPa 21.6 C deg 54.6 % 1017.7 hPa 0 C deg
1788563564 980.8 hPa 21.6 C deg 54.7 % 1017.6 hPa 0 C deg
1788561749 981 hPa 21.7 C deg 54.6 % 1017.8 hPa 0 C deg
1788559934 980.9 hPa 21.7 C deg 54.6 % 1017.7 hPa 0 C deg
*Used Equation Coefficients:
Press: 0, 1, 0
Temp.in: 0, 1, 0
Hum: 0, 1, 0
QNH: 0, 1, 0
Temp.out: 0, 1, 0

  • The parameter names for the analog channels will be Value1, Value2, Value3 (up to Value5) if station has not sent a PARAM-packet that specifies the parameter names for each analog channel.
  • Each analog value is a decimal number between 000 and 255 (according to APRS specifications). The receiver use the telemetry equation coefficientsto to restore the original sensor values. If no EQNS-packet with equation coefficients is sent we will show the values as is (this corresponds to the equation coefficients a=0, b=1 and c=0).
    The sent equation coefficients is used in the equation: a * value2 + b * value + c.
  • The units for the analog values will not be shown if station has not sent a UNIT-packet specifying what unit's to use.
  • The parameter names for the digital bits will be Bit1, Bit2, Bit3 (up to Bit8) if station has not sent a PARAM-packet that specifies the parameter names for each digital bit.
  • All bit labels will be named "On" if station has not sent a UNIT-packet that specifies the label of each bit.
  • A bit is considered to be On when the bit is 1 if station has not sent a BITS-packet that specifies another "Bit sense" (a BITS-packet specify the state of the bits that match the BIT labels)